sensor_id;sensor_type;location;lat;lon;timestamp;pressure;altitude;pressure_sealevel;temperature;humidity
25232;BME280;13176;51.140;6.290;2023-02-28T00:01:13;102201.06;;;5.01;55.69
25232;BME280;13176;51.140;6.290;2023-02-28T00:03:39;102164.38;;;4.86;55.66
25232;BME280;13176;51.140;6.290;2023-02-28T00:06:07;102219.75;;;5.19;55.45
25232;BME280;13176;51.140;6.290;2023-02-28T00:08:33;102274.25;;;5.50;55.83
25232;BME280;13176;51.140;6.290;2023-02-28T00:11:02;102166.13;;;4.87;56.07
25232;BME280;13176;51.140;6.290;2023-02-28T00:13:29;102279.16;;;5.41;56.49
25232;BME280;13176;51.140;6.290;2023-02-28T00:16:06;102287.19;;;5.50;56.27
25232;BME280;13176;51.140;6.290;2023-02-28T00:18:33;102195.59;;;4.92;56.03
25232;BME280;13176;51.140;6.290;2023-02-28T00:20:59;102278.69;;;5.27;56.22
25232;BME280;13176;51.140;6.290;2023-02-28T00:23:26;102264.88;;;5.27;56.73
25232;BME280;13176;51.140;6.290;2023-02-28T00:25:53;102298.72;;;5.33;56.51
25232;BME280;13176;51.140;6.290;2023-02-28T00:28:20;102235.22;;;4.91;57.19
25232;BME280;13176;51.140;6.290;2023-02-28T00:30:47;102219.16;;;4.76;57.21
25232;BME280;13176;51.140;6.290;2023-02-28T00:33:14;102266.56;;;5.00;57.48
25232;BME280;13176;51.140;6.290;2023-02-28T00:35:41;102212.34;;;4.53;57.41
25232;BME280;13176;51.140;6.290;2023-02-28T00:38:07;102160.53;;;4.00;58.03
25232;BME280;13176;51.140;6.290;2023-02-28T00:40:33;102168.69;;;4.12;58.29
25232;BME280;13176;51.140;6.290;2023-02-28T00:43:00;102157.00;;;3.98;57.86
25232;BME280;13176;51.140;6.290;2023-02-28T00:45:26;102179.59;;;4.05;58.60
25232;BME280;13176;51.140;6.290;2023-02-28T00:47:53;102198.03;;;4.14;58.41
25232;BME280;13176;51.140;6.290;2023-02-28T00:50:19;102264.13;;;4.56;58.82
25232;BME280;13176;51.140;6.290;2023-02-28T00:52:56;102143.41;;;3.80;59.00
25232;BME280;13176;51.140;6.290;2023-02-28T00:55:23;102047.66;;;3.26;59.41
25232;BME280;13176;51.140;6.290;2023-02-28T00:57:49;102272.38;;;4.46;59.51
25232;BME280;13176;51.140;6.290;2023-02-28T01:00:16;102212.56;;;4.12;59.57
25232;BME280;13176;51.140;6.290;2023-02-28T01:02:43;102229.56;;;4.29;59.68
25232;BME280;13176;51.140;6.290;2023-02-28T01:05:09;102234.44;;;4.45;58.80
25232;BME280;13176;51.140;6.290;2023-02-28T01:07:36;102194.00;;;4.22;58.44
25232;BME280;13176;51.140;6.290;2023-02-28T01:10:02;102260.75;;;4.58;58.66
25232;BME280;13176;51.140;6.290;2023-02-28T01:12:29;102141.22;;;3.91;58.43
25232;BME280;13176;51.140;6.290;2023-02-28T01:14:56;102219.53;;;4.38;58.38
25232;BME280;13176;51.140;6.290;2023-02-28T01:17:23;102270.34;;;4.61;58.75
25232;BME280;13176;51.140;6.290;2023-02-28T01:19:53;102299.47;;;4.80;58.94
25232;BME280;13176;51.140;6.290;2023-02-28T01:22:20;102185.47;;;4.01;60.04
25232;BME280;13176;51.140;6.290;2023-02-28T01:24:46;102212.44;;;4.31;58.98
25232;BME280;13176;51.140;6.290;2023-02-28T01:27:26;102283.06;;;4.80;58.70
25232;BME280;13176;51.140;6.290;2023-02-28T01:30:10;102226.56;;;4.42;59.20
25232;BME280;13176;51.140;6.290;2023-02-28T01:32:36;102219.13;;;4.26;59.29
25232;BME280;13176;51.140;6.290;2023-02-28T01:35:03;102268.25;;;4.51;59.60
25232;BME280;13176;51.140;6.290;2023-02-28T01:37:29;102208.47;;;4.17;59.12
25232;BME280;13176;51.140;6.290;2023-02-28T01:39:56;102165.59;;;3.99;59.59
25232;BME280;13176;51.140;6.290;2023-02-28T01:42:22;102261.81;;;4.40;59.82
25232;BME280;13176;51.140;6.290;2023-02-28T01:47:30;102196.84;;;4.06;60.08
25232;BME280;13176;51.140;6.290;2023-02-28T01:49:58;102316.38;;;4.71;59.88
25232;BME280;13176;51.140;6.290;2023-02-28T01:52:27;102278.75;;;4.55;59.88
25232;BME280;13176;51.140;6.290;2023-02-28T01:54:56;102129.22;;;3.69;59.99
25232;BME280;13176;51.140;6.290;2023-02-28T01:57:29;102186.75;;;4.12;60.03
25232;BME280;13176;51.140;6.290;2023-02-28T02:00:08;102163.00;;;3.97;59.85
25232;BME280;13176;51.140;6.290;2023-02-28T02:02:36;102229.69;;;4.32;60.14
25232;BME280;13176;51.140;6.290;2023-02-28T02:05:10;102086.09;;;3.42;60.23
25232;BME280;13176;51.140;6.290;2023-02-28T02:07:40;102180.13;;;3.95;60.86
25232;BME280;13176;51.140;6.290;2023-02-28T02:12:52;102207.41;;;4.12;60.83
25232;BME280;13176;51.140;6.290;2023-02-28T02:15:28;102283.88;;;4.54;60.96
25232;BME280;13176;51.140;6.290;2023-02-28T02:18:46;102173.09;;;3.91;60.87
25232;BME280;13176;51.140;6.290;2023-02-28T02:27:33;102272.25;;;4.43;61.80
25232;BME280;13176;51.140;6.290;2023-02-28T02:36:13;102261.94;;;4.43;61.38
25232;BME280;13176;51.140;6.290;2023-02-28T02:39:00;102237.25;;;4.28;60.87
25232;BME280;13176;51.140;6.290;2023-02-28T02:41:50;102280.56;;;4.58;60.55
25232;BME280;13176;51.140;6.290;2023-02-28T02:46:45;102173.72;;;3.86;60.99
25232;BME280;13176;51.140;6.290;2023-02-28T02:49:33;102250.53;;;4.38;61.08
25232;BME280;13176;51.140;6.290;2023-02-28T02:52:06;102264.41;;;4.40;60.92
25232;BME280;13176;51.140;6.290;2023-02-28T02:54:37;102213.84;;;4.23;60.85
25232;BME280;13176;51.140;6.290;2023-02-28T03:00:00;102278.69;;;4.54;61.12
25232;BME280;13176;51.140;6.290;2023-02-28T03:02:28;102230.06;;;4.19;60.98
25232;BME280;13176;51.140;6.290;2023-02-28T03:05:04;102186.81;;;3.90;60.73
25232;BME280;13176;51.140;6.290;2023-02-28T03:07:32;102157.13;;;3.79;61.12
25232;BME280;13176;51.140;6.290;2023-02-28T03:09:59;102108.13;;;3.34;61.34
25232;BME280;13176;51.140;6.290;2023-02-28T03:12:40;102257.16;;;4.30;61.50
25232;BME280;13176;51.140;6.290;2023-02-28T03:15:14;102102.53;;;3.45;60.76
25232;BME280;13176;51.140;6.290;2023-02-28T03:20:51;102266.06;;;4.15;62.51
25232;BME280;13176;51.140;6.290;2023-02-28T03:23:47;102127.88;;;3.33;62.13
25232;BME280;13176;51.140;6.290;2023-02-28T03:26:21;102222.00;;;3.88;62.28
25232;BME280;13176;51.140;6.290;2023-02-28T03:31:38;102195.16;;;3.39;62.97
25232;BME280;13176;51.140;6.290;2023-02-28T03:34:15;102124.81;;;3.00;63.28
25232;BME280;13176;51.140;6.290;2023-02-28T03:36:47;102138.19;;;2.90;63.82
25232;BME280;13176;51.140;6.290;2023-02-28T03:39:18;102108.38;;;2.76;64.09
25232;BME280;13176;51.140;6.290;2023-02-28T03:41:54;102242.34;;;3.37;64.28
25232;BME280;13176;51.140;6.290;2023-02-28T03:44:32;102225.84;;;3.12;64.75
25232;BME280;13176;51.140;6.290;2023-02-28T03:47:16;102235.84;;;3.25;65.35
25232;BME280;13176;51.140;6.290;2023-02-28T03:49:53;102071.66;;;2.19;65.17
25232;BME280;13176;51.140;6.290;2023-02-28T03:52:22;102064.19;;;2.04;65.33
25232;BME280;13176;51.140;6.290;2023-02-28T03:54:56;102154.38;;;2.67;64.99
25232;BME280;13176;51.140;6.290;2023-02-28T03:57:37;102231.03;;;2.93;65.74
25232;BME280;13176;51.140;6.290;2023-02-28T04:00:17;102266.66;;;3.22;65.88
25232;BME280;13176;51.140;6.290;2023-02-28T04:02:45;102220.50;;;2.87;65.85
25232;BME280;13176;51.140;6.290;2023-02-28T04:05:12;102223.91;;;2.86;65.43
25232;BME280;13176;51.140;6.290;2023-02-28T04:07:38;102149.72;;;2.38;66.14
25232;BME280;13176;51.140;6.290;2023-02-28T04:10:05;102146.59;;;2.45;66.43
25232;BME280;13176;51.140;6.290;2023-02-28T04:12:32;102059.78;;;1.81;66.10
25232;BME280;13176;51.140;6.290;2023-02-28T04:14:58;102100.22;;;2.04;66.18
25232;BME280;13176;51.140;6.290;2023-02-28T04:17:25;102187.44;;;2.56;66.48
25232;BME280;13176;51.140;6.290;2023-02-28T04:19:54;102242.38;;;2.96;66.23
25232;BME280;13176;51.140;6.290;2023-02-28T04:22:26;102210.53;;;2.75;66.75
25232;BME280;13176;51.140;6.290;2023-02-28T04:24:55;102243.88;;;2.91;66.70
25232;BME280;13176;51.140;6.290;2023-02-28T04:27:27;102130.94;;;2.01;67.01
25232;BME280;13176;51.140;6.290;2023-02-28T04:29:53;102216.38;;;2.51;67.43
25232;BME280;13176;51.140;6.290;2023-02-28T04:32:20;102174.81;;;2.23;67.40
25232;BME280;13176;51.140;6.290;2023-02-28T04:34:47;102251.28;;;2.84;67.61
25232;BME280;13176;51.140;6.290;2023-02-28T04:37:13;102148.22;;;2.43;66.66
25232;BME280;13176;51.140;6.290;2023-02-28T04:39:40;102188.19;;;2.74;66.02
25232;BME280;13176;51.140;6.290;2023-02-28T04:42:21;102242.97;;;3.32;65.41
25232;BME280;13176;51.140;6.290;2023-02-28T04:44:47;102142.81;;;2.78;65.24
25232;BME280;13176;51.140;6.290;2023-02-28T04:47:14;102266.09;;;3.50;64.32
25232;BME280;13176;51.140;6.290;2023-02-28T04:49:41;102256.38;;;3.43;64.37
25232;BME280;13176;51.140;6.290;2023-02-28T04:52:08;102167.44;;;2.92;63.86
25232;BME280;13176;51.140;6.290;2023-02-28T04:54:36;102129.66;;;2.70;64.10
25232;BME280;13176;51.140;6.290;2023-02-28T04:57:07;102088.19;;;2.44;63.47
25232;BME280;13176;51.140;6.290;2023-02-28T04:59:33;102261.59;;;3.45;63.12
25232;BME280;13176;51.140;6.290;2023-02-28T05:02:00;102160.75;;;2.97;63.21
25232;BME280;13176;51.140;6.290;2023-02-28T05:04:34;102116.97;;;2.76;62.63
25232;BME280;13176;51.140;6.290;2023-02-28T05:07:01;102033.81;;;2.16;62.91
25232;BME280;13176;51.140;6.290;2023-02-28T05:09:27;102248.09;;;3.52;62.59
25232;BME280;13176;51.140;6.290;2023-02-28T05:11:56;102149.09;;;2.84;62.55
25232;BME280;13176;51.140;6.290;2023-02-28T05:14:22;102144.72;;;2.82;62.93
25232;BME280;13176;51.140;6.290;2023-02-28T05:16:49;102210.94;;;3.05;62.85
25232;BME280;13176;51.140;6.290;2023-02-28T05:19:15;102240.34;;;3.30;62.72
25232;BME280;13176;51.140;6.290;2023-02-28T05:21:55;102273.31;;;3.37;62.82
25232;BME280;13176;51.140;6.290;2023-02-28T05:24:28;102152.75;;;2.69;62.76
25232;BME280;13176;51.140;6.290;2023-02-28T05:26:55;102125.22;;;2.68;62.29
25232;BME280;13176;51.140;6.290;2023-02-28T05:29:21;102128.88;;;2.73;62.53
25232;BME280;13176;51.140;6.290;2023-02-28T05:31:50;102260.56;;;3.41;61.97
25232;BME280;13176;51.140;6.290;2023-02-28T05:34:23;102100.38;;;2.48;61.96
25232;BME280;13176;51.140;6.290;2023-02-28T05:36:49;102196.53;;;3.10;61.88
25232;BME280;13176;51.140;6.290;2023-02-28T05:39:22;102109.88;;;2.49;61.61
25232;BME280;13176;51.140;6.290;2023-02-28T05:41:48;102255.75;;;3.29;61.11
25232;BME280;13176;51.140;6.290;2023-02-28T05:44:15;102182.53;;;2.83;61.82
25232;BME280;13176;51.140;6.290;2023-02-28T05:46:44;102055.91;;;2.11;61.69
25232;BME280;13176;51.140;6.290;2023-02-28T05:49:11;102180.78;;;2.82;61.95
25232;BME280;13176;51.140;6.290;2023-02-28T05:51:37;102151.00;;;2.68;61.49
25232;BME280;13176;51.140;6.290;2023-02-28T05:54:06;102158.66;;;2.46;61.75
25232;BME280;13176;51.140;6.290;2023-02-28T05:56:33;102259.47;;;3.15;61.71
25232;BME280;13176;51.140;6.290;2023-02-28T05:59:06;102053.38;;;1.92;61.30
25232;BME280;13176;51.140;6.290;2023-02-28T06:01:39;102185.28;;;2.67;61.58
25232;BME280;13176;51.140;6.290;2023-02-28T06:04:07;102310.41;;;3.40;61.78
25232;BME280;13176;51.140;6.290;2023-02-28T06:06:45;102172.50;;;2.29;62.15
25232;BME280;13176;51.140;6.290;2023-02-28T06:09:12;102180.06;;;2.45;62.75
25232;BME280;13176;51.140;6.290;2023-02-28T06:11:39;102126.56;;;2.19;62.29
25232;BME280;13176;51.140;6.290;2023-02-28T06:14:06;102118.50;;;2.10;61.94
25232;BME280;13176;51.140;6.290;2023-02-28T06:16:34;102175.75;;;2.44;61.95
25232;BME280;13176;51.140;6.290;2023-02-28T06:19:03;102322.59;;;3.24;62.16
25232;BME280;13176;51.140;6.290;2023-02-28T06:21:30;102287.25;;;2.81;62.46
25232;BME280;13176;51.140;6.290;2023-02-28T06:23:57;102319.97;;;3.02;62.11
25232;BME280;13176;51.140;6.290;2023-02-28T06:26:26;102188.34;;;2.19;62.69
25232;BME280;13176;51.140;6.290;2023-02-28T06:28:54;102313.59;;;2.75;63.31
25232;BME280;13176;51.140;6.290;2023-02-28T06:31:21;102237.25;;;2.19;63.27
25232;BME280;13176;51.140;6.290;2023-02-28T06:33:55;102337.56;;;2.73;63.73
25232;BME280;13176;51.140;6.290;2023-02-28T06:36:22;102076.28;;;1.29;63.44
25232;BME280;13176;51.140;6.290;2023-02-28T06:38:49;102115.25;;;1.57;63.27
25232;BME280;13176;51.140;6.290;2023-02-28T06:41:26;102118.78;;;1.59;63.25
25232;BME280;13176;51.140;6.290;2023-02-28T06:43:54;102248.03;;;2.48;62.35
25232;BME280;13176;51.140;6.290;2023-02-28T06:46:20;102217.66;;;2.41;62.51
25232;BME280;13176;51.140;6.290;2023-02-28T06:48:47;102118.34;;;1.88;62.07
25232;BME280;13176;51.140;6.290;2023-02-28T06:51:19;102313.50;;;3.12;61.38
25232;BME280;13176;51.140;6.290;2023-02-28T06:53:50;102348.91;;;3.36;61.30
25232;BME280;13176;51.140;6.290;2023-02-28T06:56:18;102226.63;;;2.70;60.98
25232;BME280;13176;51.140;6.290;2023-02-28T06:58:49;102363.06;;;3.45;61.32
25232;BME280;13176;51.140;6.290;2023-02-28T07:01:21;102337.69;;;3.35;61.15
25232;BME280;13176;51.140;6.290;2023-02-28T07:03:50;102319.91;;;3.21;60.51
25232;BME280;13176;51.140;6.290;2023-02-28T07:06:19;102281.28;;;3.02;60.65
25232;BME280;13176;51.140;6.290;2023-02-28T07:08:46;102280.34;;;3.00;60.71
25232;BME280;13176;51.140;6.290;2023-02-28T07:11:18;102263.50;;;2.88;60.89
25232;BME280;13176;51.140;6.290;2023-02-28T07:13:57;102256.59;;;2.87;60.02
25232;BME280;13176;51.140;6.290;2023-02-28T07:16:25;102201.13;;;2.76;60.23
25232;BME280;13176;51.140;6.290;2023-02-28T07:18:53;102336.34;;;3.65;59.76
25232;BME280;13176;51.140;6.290;2023-02-28T07:21:20;102160.34;;;2.66;59.83
25232;BME280;13176;51.140;6.290;2023-02-28T07:23:50;102194.63;;;2.84;59.49
25232;BME280;13176;51.140;6.290;2023-02-28T07:26:22;102357.72;;;3.82;59.59
25232;BME280;13176;51.140;6.290;2023-02-28T07:28:49;102291.28;;;3.35;60.05
25232;BME280;13176;51.140;6.290;2023-02-28T07:31:16;102318.09;;;3.59;59.29
25232;BME280;13176;51.140;6.290;2023-02-28T07:33:43;102184.44;;;2.87;59.10
25232;BME280;13176;51.140;6.290;2023-02-28T07:36:13;102334.41;;;3.80;58.98
25232;BME280;13176;51.140;6.290;2023-02-28T07:38:42;102332.19;;;3.89;58.45
25232;BME280;13176;51.140;6.290;2023-02-28T07:41:13;102363.16;;;4.11;58.53
25232;BME280;13176;51.140;6.290;2023-02-28T07:43:39;102305.75;;;3.74;58.88
25232;BME280;13176;51.140;6.290;2023-02-28T07:46:08;102347.31;;;4.02;58.24
25232;BME280;13176;51.140;6.290;2023-02-28T07:48:35;102296.91;;;3.68;57.90
25232;BME280;13176;51.140;6.290;2023-02-28T07:51:02;102357.88;;;4.08;58.00
25232;BME280;13176;51.140;6.290;2023-02-28T07:53:29;102257.03;;;3.60;57.41
25232;BME280;13176;51.140;6.290;2023-02-28T07:55:57;102364.00;;;4.32;56.90
25232;BME280;13176;51.140;6.290;2023-02-28T07:58:24;102315.41;;;4.00;57.29
25232;BME280;13176;51.140;6.290;2023-02-28T08:01:05;102353.78;;;4.35;56.45
25232;BME280;13176;51.140;6.290;2023-02-28T08:03:39;102352.13;;;4.37;56.18
25232;BME280;13176;51.140;6.290;2023-02-28T08:06:07;102358.22;;;4.39;56.39
25232;BME280;13176;51.140;6.290;2023-02-28T08:08:34;102283.59;;;4.01;55.66
25232;BME280;13176;51.140;6.290;2023-02-28T08:11:01;102354.47;;;4.53;55.49
25232;BME280;13176;51.140;6.290;2023-02-28T08:13:29;102370.44;;;4.65;55.25
25232;BME280;13176;51.140;6.290;2023-02-28T08:15:56;102377.38;;;4.66;55.03
25232;BME280;13176;51.140;6.290;2023-02-28T08:18:23;102377.38;;;4.66;54.51
25232;BME280;13176;51.140;6.290;2023-02-28T08:20:49;102312.22;;;4.29;54.63
25232;BME280;13176;51.140;6.290;2023-02-28T08:23:16;102239.66;;;4.00;54.12
25232;BME280;13176;51.140;6.290;2023-02-28T08:25:42;102252.41;;;3.95;53.91
25232;BME280;13176;51.140;6.290;2023-02-28T08:28:09;102376.38;;;4.86;54.04
25232;BME280;13176;51.140;6.290;2023-02-28T08:30:35;102282.06;;;4.28;53.44
25232;BME280;13176;51.140;6.290;2023-02-28T08:33:01;102257.06;;;4.27;53.20
25232;BME280;13176;51.140;6.290;2023-02-28T08:35:28;102383.03;;;5.03;53.33
25232;BME280;13176;51.140;6.290;2023-02-28T08:37:55;102276.50;;;4.41;52.56
25232;BME280;13176;51.140;6.290;2023-02-28T08:40:21;102290.56;;;4.49;52.43
25232;BME280;13176;51.140;6.290;2023-02-28T08:42:48;102177.13;;;3.85;52.22
25232;BME280;13176;51.140;6.290;2023-02-28T08:45:15;102289.59;;;4.69;51.46
25232;BME280;13176;51.140;6.290;2023-02-28T08:47:42;102375.88;;;5.19;51.48
25232;BME280;13176;51.140;6.290;2023-02-28T08:50:09;102363.91;;;5.23;50.40
25232;BME280;13176;51.140;6.290;2023-02-28T08:52:35;102396.53;;;5.43;49.92
25232;BME280;13176;51.140;6.290;2023-02-28T08:55:02;102318.50;;;5.06;50.20
25232;BME280;13176;51.140;6.290;2023-02-28T08:57:28;102133.97;;;4.04;49.54
25232;BME280;13176;51.140;6.290;2023-02-28T08:59:55;102355.75;;;5.36;49.19
25232;BME280;13176;51.140;6.290;2023-02-28T09:02:21;102278.75;;;5.04;49.51
25232;BME280;13176;51.140;6.290;2023-02-28T09:04:48;102254.56;;;5.02;48.10
25232;BME280;13176;51.140;6.290;2023-02-28T09:07:14;102330.75;;;5.62;48.48
25232;BME280;13176;51.140;6.290;2023-02-28T09:09:41;102318.75;;;5.64;48.08
25232;BME280;13176;51.140;6.290;2023-02-28T09:12:26;102360.09;;;6.14;48.09
25232;BME280;13176;51.140;6.290;2023-02-28T09:14:53;102349.25;;;5.99;46.28
25232;BME280;13176;51.140;6.290;2023-02-28T09:17:20;102261.34;;;5.51;46.50
25232;BME280;13176;51.140;6.290;2023-02-28T09:19:51;102217.19;;;5.47;45.42
25232;BME280;13176;51.140;6.290;2023-02-28T09:22:18;102268.72;;;5.92;45.63
25232;BME280;13176;51.140;6.290;2023-02-28T09:24:44;102272.00;;;5.86;45.27
25232;BME280;13176;51.140;6.290;2023-02-28T09:27:11;102319.78;;;6.24;43.92
25232;BME280;13176;51.140;6.290;2023-02-28T09:29:37;102168.03;;;5.47;43.83
25232;BME280;13176;51.140;6.290;2023-02-28T09:32:03;102201.97;;;5.83;42.31
25232;BME280;13176;51.140;6.290;2023-02-28T09:34:32;102196.25;;;5.93;42.75
25232;BME280;13176;51.140;6.290;2023-02-28T09:37:06;102274.53;;;6.42;41.62
25232;BME280;13176;51.140;6.290;2023-02-28T09:39:33;102325.47;;;6.70;41.29
25232;BME280;13176;51.140;6.290;2023-02-28T09:42:01;102341.56;;;6.89;41.50
25232;BME280;13176;51.140;6.290;2023-02-28T09:47:05;102315.31;;;6.78;39.84
25232;BME280;13176;51.140;6.290;2023-02-28T09:49:40;102359.56;;;7.14;40.44
25232;BME280;13176;51.140;6.290;2023-02-28T09:52:28;102310.84;;;7.04;39.64
25232;BME280;13176;51.140;6.290;2023-02-28T09:54:55;102283.97;;;7.02;40.18
25232;BME280;13176;51.140;6.290;2023-02-28T09:57:29;102346.38;;;7.39;41.27
25232;BME280;13176;51.140;6.290;2023-02-28T10:03:04;102342.16;;;7.44;38.97
25232;BME280;13176;51.140;6.290;2023-02-28T10:10:55;102202.47;;;6.94;38.58
25232;BME280;13176;51.140;6.290;2023-02-28T10:16:21;102346.19;;;8.00;39.24
25232;BME280;13176;51.140;6.290;2023-02-28T10:18:54;102355.56;;;8.29;38.57
25232;BME280;13176;51.140;6.290;2023-02-28T10:24:11;102334.59;;;8.23;39.15
25232;BME280;13176;51.140;6.290;2023-02-28T10:26:43;102295.53;;;8.20;38.77
25232;BME280;13176;51.140;6.290;2023-02-28T10:29:11;102216.88;;;7.90;37.58
25232;BME280;13176;51.140;6.290;2023-02-28T10:31:38;102337.13;;;8.60;38.18
25232;BME280;13176;51.140;6.290;2023-02-28T10:34:04;102343.03;;;8.52;37.41
25232;BME280;13176;51.140;6.290;2023-02-28T10:36:32;102234.00;;;8.19;36.99
25232;BME280;13176;51.140;6.290;2023-02-28T10:39:01;102315.03;;;8.83;36.94
25232;BME280;13176;51.140;6.290;2023-02-28T10:41:30;102323.38;;;9.10;36.43
25232;BME280;13176;51.140;6.290;2023-02-28T10:44:23;102340.38;;;10.47;35.62
25232;BME280;13176;51.140;6.290;2023-02-28T10:46:50;102326.28;;;12.01;32.52
25232;BME280;13176;51.140;6.290;2023-02-28T10:49:30;102310.19;;;13.05;30.69
25232;BME280;13176;51.140;6.290;2023-02-28T10:51:59;102280.44;;;12.94;30.26
25232;BME280;13176;51.140;6.290;2023-02-28T10:54:38;102182.47;;;12.19;29.79
25232;BME280;13176;51.140;6.290;2023-02-28T10:59:35;102312.88;;;13.47;29.77
25232;BME280;13176;51.140;6.290;2023-02-28T11:04:55;102245.69;;;15.25;27.18
25232;BME280;13176;51.140;6.290;2023-02-28T11:07:23;102240.28;;;15.46;26.68
25232;BME280;13176;51.140;6.290;2023-02-28T11:09:57;102207.66;;;14.47;26.25
25232;BME280;13176;51.140;6.290;2023-02-28T11:12:38;102299.53;;;15.89;26.46
25232;BME280;13176;51.140;6.290;2023-02-28T11:15:27;102299.19;;;15.24;26.18
25232;BME280;13176;51.140;6.290;2023-02-28T11:18:39;102289.91;;;14.61;27.47
25232;BME280;13176;51.140;6.290;2023-02-28T11:21:07;102288.25;;;14.42;28.03
25232;BME280;13176;51.140;6.290;2023-02-28T11:23:36;102266.44;;;12.86;29.61
25232;BME280;13176;51.140;6.290;2023-02-28T11:26:06;102288.38;;;13.07;30.23
25232;BME280;13176;51.140;6.290;2023-02-28T11:28:39;102152.84;;;13.57;28.51
25232;BME280;13176;51.140;6.290;2023-02-28T11:33:43;102204.00;;;14.73;27.03
25232;BME280;13176;51.140;6.290;2023-02-28T11:36:19;102178.50;;;14.85;26.79
25232;BME280;13176;51.140;6.290;2023-02-28T11:38:49;102184.75;;;14.74;27.26
25232;BME280;13176;51.140;6.290;2023-02-28T11:41:34;102273.81;;;15.17;27.35
25232;BME280;13176;51.140;6.290;2023-02-28T11:47:15;102279.03;;;15.20;27.30
25232;BME280;13176;51.140;6.290;2023-02-28T11:49:54;102256.03;;;15.49;26.05
25232;BME280;13176;51.140;6.290;2023-02-28T11:52:48;102253.91;;;15.87;25.91
25232;BME280;13176;51.140;6.290;2023-02-28T11:55:36;102283.31;;;16.28;26.14
25232;BME280;13176;51.140;6.290;2023-02-28T11:58:31;102286.00;;;16.20;26.14
25232;BME280;13176;51.140;6.290;2023-02-28T12:03:48;102280.03;;;15.06;28.27
25232;BME280;13176;51.140;6.290;2023-02-28T12:20:49;102260.28;;;12.64;31.26
25232;BME280;13176;51.140;6.290;2023-02-28T12:26:11;102255.41;;;11.62;31.82
25232;BME280;13176;51.140;6.290;2023-02-28T12:28:44;102271.09;;;11.62;31.72
25232;BME280;13176;51.140;6.290;2023-02-28T12:31:20;102264.41;;;11.00;31.64
25232;BME280;13176;51.140;6.290;2023-02-28T12:33:52;102192.47;;;10.44;33.21
25232;BME280;13176;51.140;6.290;2023-02-28T12:36:20;102266.41;;;10.43;32.65
25232;BME280;13176;51.140;6.290;2023-02-28T12:38:57;102234.34;;;11.51;32.93
25232;BME280;13176;51.140;6.290;2023-02-28T12:41:37;102249.03;;;13.22;30.45
25232;BME280;13176;51.140;6.290;2023-02-28T12:44:31;102251.69;;;13.10;30.27
25232;BME280;13176;51.140;6.290;2023-02-28T12:47:01;102194.81;;;12.67;30.88
25232;BME280;13176;51.140;6.290;2023-02-28T12:49:33;102162.44;;;12.33;31.12
25232;BME280;13176;51.140;6.290;2023-02-28T12:52:01;102182.22;;;11.69;32.54
25232;BME280;13176;51.140;6.290;2023-02-28T12:57:28;102176.00;;;11.51;33.07
25232;BME280;13176;51.140;6.290;2023-02-28T13:00:03;102192.22;;;12.88;31.53
25232;BME280;13176;51.140;6.290;2023-02-28T13:11:23;102123.78;;;14.11;28.71
25232;BME280;13176;51.140;6.290;2023-02-28T13:13:57;102200.69;;;14.40;29.39
25232;BME280;13176;51.140;6.290;2023-02-28T13:16:24;102217.34;;;14.37;28.20
25232;BME280;13176;51.140;6.290;2023-02-28T13:18:51;102181.63;;;13.90;27.54
25232;BME280;13176;51.140;6.290;2023-02-28T13:21:27;102136.19;;;13.79;28.65
25232;BME280;13176;51.140;6.290;2023-02-28T13:29:27;102087.09;;;13.99;26.72
25232;BME280;13176;51.140;6.290;2023-02-28T13:34:37;102205.84;;;14.59;26.55
25232;BME280;13176;51.140;6.290;2023-02-28T13:39:46;102174.59;;;13.98;28.40
25232;BME280;13176;51.140;6.290;2023-02-28T13:47:40;102196.09;;;14.78;28.17
25232;BME280;13176;51.140;6.290;2023-02-28T13:50:29;102205.72;;;14.79;29.22
25232;BME280;13176;51.140;6.290;2023-02-28T13:56:10;102200.00;;;15.38;28.00
25232;BME280;13176;51.140;6.290;2023-02-28T14:01:48;102187.78;;;13.72;29.11
25232;BME280;13176;51.140;6.290;2023-02-28T14:04:38;102196.63;;;13.25;31.41
25232;BME280;13176;51.140;6.290;2023-02-28T14:07:16;102091.75;;;12.21;31.33
25232;BME280;13176;51.140;6.290;2023-02-28T14:10:00;102047.13;;;11.73;31.33
25232;BME280;13176;51.140;6.290;2023-02-28T14:18:26;102176.41;;;12.41;33.07
25232;BME280;13176;51.140;6.290;2023-02-28T14:21:24;102174.75;;;13.47;31.17
25232;BME280;13176;51.140;6.290;2023-02-28T14:30:02;102168.41;;;14.12;29.48
25232;BME280;13176;51.140;6.290;2023-02-28T14:35:39;102134.50;;;13.54;30.77
25232;BME280;13176;51.140;6.290;2023-02-28T14:38:25;102169.47;;;13.62;31.28
25232;BME280;13176;51.140;6.290;2023-02-28T14:40:55;102122.34;;;13.32;31.45
25232;BME280;13176;51.140;6.290;2023-02-28T14:43:26;102125.84;;;12.83;30.95
25232;BME280;13176;51.140;6.290;2023-02-28T14:45:56;102169.47;;;12.57;32.25
25232;BME280;13176;51.140;6.290;2023-02-28T14:48:24;102134.44;;;12.11;32.32
25232;BME280;13176;51.140;6.290;2023-02-28T14:50:59;102166.81;;;12.35;30.50
25232;BME280;13176;51.140;6.290;2023-02-28T14:53:30;102134.22;;;11.58;31.38
25232;BME280;13176;51.140;6.290;2023-02-28T14:56:00;102138.63;;;11.64;33.47
25232;BME280;13176;51.140;6.290;2023-02-28T14:58:29;102162.31;;;11.94;31.83
25232;BME280;13176;51.140;6.290;2023-02-28T15:00:58;102165.88;;;12.20;33.25
25232;BME280;13176;51.140;6.290;2023-02-28T15:03:32;102150.03;;;11.78;32.70
25232;BME280;13176;51.140;6.290;2023-02-28T15:06:04;102164.06;;;11.95;32.23
25232;BME280;13176;51.140;6.290;2023-02-28T15:08:31;102079.16;;;11.27;33.25
25232;BME280;13176;51.140;6.290;2023-02-28T15:11:05;102079.19;;;11.34;33.54
25232;BME280;13176;51.140;6.290;2023-02-28T15:13:40;102146.53;;;11.76;33.35
25232;BME280;13176;51.140;6.290;2023-02-28T15:16:11;102094.16;;;11.55;33.00
25232;BME280;13176;51.140;6.290;2023-02-28T15:21:22;102141.31;;;11.79;33.43
25232;BME280;13176;51.140;6.290;2023-02-28T15:23:53;102041.63;;;11.16;33.24
25232;BME280;13176;51.140;6.290;2023-02-28T15:26:24;102013.16;;;10.28;33.13